createdAt,value
2019-05-19T00:02:11.941Z,30.37
2019-05-19T00:05:18.706Z,34.27
2019-05-19T00:08:25.160Z,28.50
2019-05-19T00:11:31.795Z,31.80
2019-05-19T00:14:38.292Z,33.02
2019-05-19T00:17:46.943Z,30.62
2019-05-19T00:20:53.480Z,29.52
2019-05-19T00:24:00.062Z,28.47
2019-05-19T00:27:07.622Z,31.97
2019-05-19T00:30:14.739Z,30.60
2019-05-19T00:33:22.733Z,29.77
2019-05-19T00:36:29.290Z,29.35
2019-05-19T00:39:35.911Z,28.47
2019-05-19T00:42:42.578Z,33.65
2019-05-19T00:45:49.160Z,29.82
2019-05-19T00:48:55.828Z,27.15
2019-05-19T00:52:02.518Z,34.55
2019-05-19T00:55:09.664Z,26.25
2019-05-19T00:58:17.120Z,33.13
2019-05-19T01:01:23.639Z,25.97
2019-05-19T01:04:32.658Z,31.82
2019-05-19T01:07:39.369Z,36.10
2019-05-19T01:10:46.463Z,32.48
2019-05-19T01:13:54.134Z,28.57
2019-05-19T01:17:00.623Z,32.95
2019-05-19T01:20:07.496Z,37.23
2019-05-19T01:23:14.003Z,27.52
2019-05-19T01:26:20.414Z,30.52
2019-05-19T01:29:27.120Z,31.37
2019-05-19T01:32:33.582Z,28.77
2019-05-19T01:35:40.333Z,34.90
2019-05-19T01:38:50.859Z,32.33
2019-05-19T01:41:57.420Z,37.85
2019-05-19T01:45:04.076Z,30.45
2019-05-19T01:48:10.570Z,33.98
2019-05-19T01:51:17.013Z,45.25
2019-05-19T01:54:23.747Z,31.57
2019-05-19T01:57:30.172Z,28.32
2019-05-19T02:00:36.631Z,28.55
2019-05-19T02:03:47.474Z,34.13
2019-05-19T02:06:53.953Z,35.45
2019-05-19T02:10:03.500Z,38.75
2019-05-19T02:13:10.074Z,30.52
2019-05-19T02:16:16.632Z,27.00
2019-05-19T02:19:23.232Z,27.58
2019-05-19T02:22:29.653Z,35.90
2019-05-19T02:25:36.340Z,41.42
2019-05-19T02:28:45.972Z,31.95
2019-05-19T02:31:52.634Z,30.60
2019-05-19T02:34:59.093Z,33.25
2019-05-19T02:38:05.912Z,32.85
2019-05-19T02:41:15.596Z,42.35
2019-05-19T02:44:23.946Z,33.53
2019-05-19T02:47:33.084Z,36.10
2019-05-19T02:50:51.807Z,35.08
2019-05-19T02:53:50.113Z,33.40
2019-05-19T02:56:57.509Z,35.70
2019-05-19T03:00:05.693Z,38.33
2019-05-19T03:03:12.280Z,32.35
2019-05-19T03:06:19.788Z,33.38
2019-05-19T03:09:26.469Z,34.80
2019-05-19T03:12:32.867Z,36.25
2019-05-19T03:15:42.648Z,39.65
2019-05-19T03:18:49.123Z,33.78
2019-05-19T03:21:55.660Z,35.03
2019-05-19T03:25:02.196Z,39.38
2019-05-19T03:28:08.797Z,36.53
2019-05-19T03:31:34.380Z,35.60
2019-05-19T03:34:40.808Z,32.83
2019-05-19T03:37:47.247Z,36.93
2019-05-19T03:40:53.967Z,35.60
2019-05-19T03:44:00.513Z,34.48
2019-05-19T03:47:07.004Z,33.58
2019-05-19T03:50:13.439Z,46.20
2019-05-19T03:53:19.954Z,41.10
2019-05-19T03:56:26.490Z,38.83
2019-05-19T03:59:33.036Z,33.20
2019-05-19T04:02:39.573Z,35.58
2019-05-19T04:05:46.539Z,44.75
2019-05-19T04:08:53.055Z,33.08
2019-05-19T04:11:59.601Z,34.30
2019-05-19T04:15:06.605Z,41.08
2019-05-19T04:18:13.087Z,46.40
2019-05-19T04:21:19.704Z,38.40
2019-05-19T04:24:26.116Z,32.35
2019-05-19T04:27:32.568Z,37.13
2019-05-19T04:30:39.052Z,37.93
2019-05-19T04:33:48.577Z,32.65
2019-05-19T04:36:55.190Z,36.85
2019-05-19T04:40:01.680Z,39.90
2019-05-19T04:43:11.207Z,35.48
2019-05-19T04:46:17.630Z,37.17
2019-05-19T04:49:24.103Z,39.33
2019-05-19T04:52:30.627Z,32.05
2019-05-19T04:55:37.116Z,40.98
2019-05-19T04:58:44.779Z,42.15
2019-05-19T05:01:51.301Z,45.88
2019-05-19T05:04:57.741Z,42.05
2019-05-19T05:08:04.297Z,39.05
2019-05-19T05:11:10.797Z,41.73
2019-05-19T05:14:17.189Z,45.33
2019-05-19T05:17:23.642Z,32.75
2019-05-19T05:20:30.501Z,28.55
2019-05-19T05:23:37.081Z,36.05
2019-05-19T05:26:44.800Z,33.58
2019-05-19T05:29:51.271Z,33.88
2019-05-19T05:32:57.833Z,33.98
2019-05-19T05:36:04.398Z,41.23
2019-05-19T05:39:10.926Z,53.60
2019-05-19T05:42:17.484Z,38.10
2019-05-19T05:45:24.460Z,32.95
2019-05-19T05:48:30.996Z,46.10
2019-05-19T05:51:37.503Z,34.27
2019-05-19T05:54:46.854Z,34.65
2019-05-19T05:57:55.175Z,33.53
2019-05-19T06:01:01.623Z,30.75
2019-05-19T06:04:08.205Z,43.25
2019-05-19T06:07:14.867Z,33.50
2019-05-19T06:10:21.903Z,32.70
2019-05-19T06:13:28.288Z,36.17
2019-05-19T06:16:34.890Z,30.88
2019-05-19T06:19:41.557Z,32.93
2019-05-19T06:22:56.425Z,37.20
2019-05-19T06:25:56.505Z,33.65
2019-05-19T06:29:03.188Z,37.53
2019-05-19T06:32:17.375Z,41.73
2019-05-19T06:35:23.893Z,35.00
2019-05-19T06:38:30.389Z,33.28
2019-05-19T06:41:36.879Z,39.63
2019-05-19T06:44:43.588Z,39.03
2019-05-19T06:47:51.169Z,32.30
2019-05-19T06:50:57.604Z,32.50
2019-05-19T06:54:04.383Z,30.50
2019-05-19T06:57:11.095Z,37.38
2019-05-19T07:00:19.354Z,31.85
2019-05-19T07:03:25.850Z,32.85
2019-05-19T07:06:34.180Z,36.08
2019-05-19T07:09:40.689Z,30.52
2019-05-19T07:12:47.140Z,34.03
2019-05-19T07:15:55.273Z,31.27
2019-05-19T07:19:01.680Z,32.63
2019-05-19T07:22:08.138Z,30.05
2019-05-19T07:25:14.735Z,36.95
2019-05-19T07:28:21.347Z,29.12
2019-05-19T07:31:27.808Z,32.38
2019-05-19T07:34:34.341Z,31.85
2019-05-19T07:37:40.855Z,29.32
2019-05-19T07:40:47.379Z,33.83
2019-05-19T07:43:55.491Z,26.23
2019-05-19T07:47:01.971Z,28.52
2019-05-19T07:50:08.676Z,25.52
2019-05-19T07:53:15.272Z,31.57
2019-05-19T07:56:21.745Z,33.30
2019-05-19T07:59:28.274Z,26.15
2019-05-19T08:02:35.154Z,27.80
2019-05-19T08:05:44.727Z,28.60
2019-05-19T08:08:51.345Z,31.97
2019-05-19T08:11:57.713Z,27.32
2019-05-19T08:15:04.559Z,27.27
2019-05-19T08:18:12.685Z,30.30
2019-05-19T08:21:19.147Z,25.20
2019-05-19T08:24:25.724Z,28.55
2019-05-19T08:27:32.583Z,32.85
2019-05-19T08:30:39.168Z,30.02
2019-05-19T08:33:48.664Z,27.40
2019-05-19T08:36:55.156Z,26.65
2019-05-19T08:40:02.802Z,29.25
2019-05-19T08:43:09.340Z,25.00
2019-05-19T08:46:16.198Z,28.02
2019-05-19T08:49:25.282Z,24.90
2019-05-19T08:52:34.680Z,30.17
2019-05-19T08:55:41.185Z,31.48
2019-05-19T08:58:49.214Z,24.67
2019-05-19T09:01:56.776Z,25.40
2019-05-19T09:05:03.219Z,24.80
2019-05-19T09:08:09.683Z,29.82
2019-05-19T09:11:16.299Z,29.07
2019-05-19T09:14:22.779Z,27.58
2019-05-19T09:17:30.901Z,27.22
2019-05-19T09:20:37.363Z,34.08
2019-05-19T09:23:44.496Z,24.90
2019-05-19T09:26:50.976Z,23.47
2019-05-19T09:30:01.604Z,27.82
2019-05-19T09:33:11.976Z,23.70
2019-05-19T09:36:18.465Z,31.40
2019-05-19T09:39:24.938Z,23.25
2019-05-19T09:42:31.489Z,29.98
2019-05-19T09:45:37.954Z,26.15
2019-05-19T09:48:45.789Z,26.05
2019-05-19T09:51:52.269Z,22.02
2019-05-19T09:54:58.836Z,27.00
2019-05-19T09:58:05.420Z,23.70
2019-05-19T10:01:11.955Z,24.77
2019-05-19T10:04:20.343Z,24.77
2019-05-19T10:07:26.811Z,24.77
2019-05-19T10:11:12.554Z,29.87
2019-05-19T10:14:19.081Z,23.52
2019-05-19T10:17:25.652Z,24.43
2019-05-19T10:20:32.181Z,27.52
2019-05-19T10:23:38.885Z,23.38
2019-05-19T10:26:46.109Z,24.87
2019-05-19T10:29:52.532Z,23.27
2019-05-19T10:32:59.016Z,25.48
2019-05-19T10:36:05.783Z,27.10
2019-05-19T10:39:12.357Z,33.63
2019-05-19T10:42:18.898Z,27.25
2019-05-19T10:45:25.384Z,25.77
2019-05-19T10:48:31.994Z,24.35
2019-05-19T10:51:40.173Z,23.55
2019-05-19T10:54:46.681Z,24.43
2019-05-19T10:57:53.442Z,22.55
2019-05-19T11:00:59.926Z,20.48
2019-05-19T11:04:06.507Z,22.35
2019-05-19T11:07:13.225Z,24.60
2019-05-19T11:10:20.915Z,26.87
2019-05-19T11:13:27.413Z,21.73
2019-05-19T11:16:33.951Z,25.40
2019-05-19T11:19:40.411Z,22.27
2019-05-19T11:22:47.069Z,19.92
2019-05-19T11:25:53.410Z,25.33
2019-05-19T11:28:59.851Z,22.07
2019-05-19T11:32:06.408Z,22.10
2019-05-19T11:35:12.889Z,22.70
2019-05-19T11:38:19.170Z,21.10
2019-05-19T11:41:25.351Z,22.87
2019-05-19T11:44:31.584Z,22.20
2019-05-19T11:47:37.974Z,20.43
2019-05-19T11:50:45.065Z,21.40
2019-05-19T11:53:51.627Z,21.82
2019-05-19T11:56:58.199Z,20.40
2019-05-19T12:00:07.361Z,22.90
2019-05-19T12:03:13.573Z,20.27
2019-05-19T12:06:20.277Z,23.62
2019-05-19T12:09:26.783Z,24.25
2019-05-19T12:12:33.273Z,23.47
2019-05-19T12:15:39.391Z,23.60
2019-05-19T12:18:47.049Z,21.35
2019-05-19T12:21:53.536Z,21.45
2019-05-19T12:25:01.056Z,20.82
2019-05-19T12:28:07.747Z,21.07
2019-05-19T12:31:16.835Z,22.77
2019-05-19T12:34:22.116Z,22.90
2019-05-19T12:37:28.643Z,23.32
2019-05-19T12:40:34.804Z,22.87
2019-05-19T12:43:40.999Z,23.87
2019-05-19T12:46:48.841Z,23.87
2019-05-19T12:49:55.127Z,25.00
2019-05-19T12:53:01.366Z,19.43
2019-05-19T12:56:07.561Z,22.90
2019-05-19T12:59:14.775Z,23.07
2019-05-19T13:02:21.199Z,23.10
2019-05-19T13:05:28.898Z,32.03
2019-05-19T13:08:35.409Z,19.25
2019-05-19T13:11:43.887Z,22.27
2019-05-19T13:14:50.080Z,24.45
2019-05-19T13:17:56.481Z,24.37
2019-05-19T13:21:03.013Z,23.10
2019-05-19T13:24:11.102Z,24.67
2019-05-19T13:27:17.578Z,21.20
2019-05-19T13:30:24.236Z,22.55
2019-05-19T13:33:30.697Z,24.80
2019-05-19T13:36:40.203Z,21.77
2019-05-19T13:39:47.365Z,19.57
2019-05-19T13:42:53.513Z,25.27
2019-05-19T13:46:00.294Z,21.37
2019-05-19T13:49:06.853Z,22.70
2019-05-19T13:52:13.206Z,24.07
2019-05-19T13:55:19.844Z,20.07
2019-05-19T13:58:26.039Z,22.63
2019-05-19T14:01:32.250Z,20.57
2019-05-19T14:04:38.747Z,21.07
2019-05-19T14:07:45.606Z,20.92
2019-05-19T14:10:55.070Z,20.97
2019-05-19T14:14:01.309Z,22.40
2019-05-19T14:17:07.654Z,22.30
2019-05-19T14:20:14.238Z,20.83
2019-05-19T14:23:20.513Z,22.07
2019-05-19T14:26:26.787Z,23.60
2019-05-19T14:29:35.768Z,21.80
2019-05-19T14:32:44.052Z,22.00
2019-05-19T14:35:50.228Z,25.50
2019-05-19T14:39:05.059Z,21.00
2019-05-19T14:42:13.647Z,24.37
2019-05-19T14:45:20.937Z,28.63
2019-05-19T14:48:27.041Z,43.43
2019-05-19T14:51:33.455Z,21.47
2019-05-19T14:54:39.728Z,21.33
2019-05-19T14:57:47.000Z,21.33
2019-05-19T15:00:53.189Z,26.43
2019-05-19T15:03:59.495Z,25.00
2019-05-19T15:07:06.845Z,22.77
2019-05-19T15:10:13.627Z,23.20
2019-05-19T15:13:20.120Z,26.10
2019-05-19T15:16:26.358Z,23.73
2019-05-19T15:19:32.451Z,27.17
2019-05-19T15:22:38.716Z,22.77
2019-05-19T15:25:45.542Z,24.80
2019-05-19T15:28:51.710Z,23.30
2019-05-19T15:32:00.028Z,24.80
2019-05-19T15:35:07.010Z,24.10
2019-05-19T15:39:26.353Z,23.37
2019-05-19T15:42:32.513Z,23.33
2019-05-19T15:45:42.920Z,22.30
2019-05-19T15:48:49.170Z,25.70
2019-05-19T15:52:02.980Z,23.23
2019-05-19T15:55:03.750Z,28.63
2019-05-19T15:58:16.487Z,24.90
2019-05-19T16:01:18.045Z,22.37
2019-05-19T16:04:25.423Z,23.60
2019-05-19T16:07:31.861Z,23.00
2019-05-19T16:10:38.143Z,27.10
2019-05-19T16:13:44.879Z,26.23
2019-05-19T16:16:51.582Z,21.20
2019-05-19T16:19:57.692Z,25.47
2019-05-19T16:23:04.351Z,24.20
2019-05-19T16:26:10.684Z,26.47
2019-05-19T16:29:16.963Z,24.03
2019-05-19T16:32:23.413Z,23.52
2019-05-19T16:35:29.847Z,26.97
2019-05-19T16:38:36.353Z,26.00
2019-05-19T16:41:46.051Z,23.77
2019-05-19T16:44:52.303Z,26.83
2019-05-19T16:47:58.558Z,24.57
2019-05-19T16:51:04.908Z,21.30
2019-05-19T16:54:15.760Z,24.40
2019-05-19T16:57:22.045Z,26.77
2019-05-19T17:00:29.858Z,23.77
2019-05-19T17:03:36.098Z,24.13
2019-05-19T17:06:43.144Z,24.95
2019-05-19T17:09:50.645Z,23.77
2019-05-19T17:12:57.495Z,26.20
2019-05-19T17:16:04.104Z,26.82
2019-05-19T17:19:10.587Z,25.15
2019-05-19T17:22:17.076Z,24.23
2019-05-19T17:25:23.768Z,22.27
2019-05-19T17:28:30.424Z,23.75
2019-05-19T17:31:36.999Z,25.60
2019-05-19T17:34:45.844Z,24.52
2019-05-19T17:37:53.695Z,21.40
2019-05-19T17:41:00.194Z,23.02
2019-05-19T17:44:06.817Z,25.55
2019-05-19T17:47:13.334Z,25.08
2019-05-19T17:50:34.796Z,23.47
2019-05-19T17:53:44.790Z,25.23
2019-05-19T17:56:53.416Z,22.05
2019-05-19T18:00:02.259Z,28.02
2019-05-19T18:03:10.674Z,23.95
2019-05-19T18:06:17.349Z,22.40
2019-05-19T18:09:24.049Z,23.83
2019-05-19T18:12:31.709Z,22.22
2019-05-19T18:15:39.092Z,24.47
2019-05-19T18:18:47.848Z,26.20
2019-05-19T18:21:57.861Z,23.18
2019-05-19T18:25:04.608Z,23.05
2019-05-19T18:28:11.065Z,24.63
2019-05-19T18:31:17.538Z,22.58
2019-05-19T18:34:23.959Z,29.15
2019-05-19T18:37:32.396Z,23.02
2019-05-19T18:40:39.028Z,26.55
2019-05-19T18:43:46.888Z,22.70
2019-05-19T18:46:53.409Z,23.77
2019-05-19T18:51:09.482Z,25.70
2019-05-19T18:54:15.973Z,22.55
2019-05-19T18:57:22.430Z,23.73
2019-05-19T19:00:40.255Z,26.02
2019-05-19T19:03:47.230Z,25.62
2019-05-19T19:06:54.096Z,27.42
2019-05-19T19:10:00.497Z,28.50
2019-05-19T19:13:08.135Z,27.13
2019-05-19T19:16:14.735Z,30.23
2019-05-19T19:19:21.343Z,25.70
2019-05-19T19:22:28.045Z,24.85
2019-05-19T19:25:37.567Z,24.80
2019-05-19T19:28:46.332Z,25.40
2019-05-19T19:31:53.103Z,26.95
2019-05-19T19:34:59.490Z,25.30
2019-05-19T19:38:06.846Z,22.90
2019-05-19T19:41:13.797Z,22.98
2019-05-19T19:44:20.953Z,30.23
2019-05-19T19:47:27.950Z,25.97
2019-05-19T19:50:37.114Z,27.00
2019-05-19T19:53:45.266Z,26.60
2019-05-19T19:56:52.142Z,24.98
2019-05-19T19:59:59.376Z,24.65
2019-05-19T20:03:06.805Z,25.85
2019-05-19T20:06:16.358Z,21.82
2019-05-19T20:09:23.212Z,24.65
2019-05-19T20:12:31.975Z,21.82
2019-05-19T20:15:42.027Z,23.83
2019-05-19T20:18:48.689Z,26.97
2019-05-19T20:21:55.362Z,23.80
2019-05-19T20:25:01.764Z,32.30
2019-05-19T20:28:08.407Z,26.12
2019-05-19T20:31:14.975Z,24.10
2019-05-19T20:34:21.478Z,24.52
2019-05-19T20:37:28.104Z,21.97
2019-05-19T20:40:34.616Z,24.92
2019-05-19T20:43:41.149Z,22.27
2019-05-19T20:46:47.721Z,22.67
2019-05-19T20:49:56.301Z,23.12
2019-05-19T20:53:02.893Z,22.50
2019-05-19T20:56:09.367Z,23.70
2019-05-19T20:59:19.019Z,23.10
2019-05-19T21:02:25.644Z,25.77
2019-05-19T21:05:32.271Z,25.35
2019-05-19T21:08:39.066Z,21.23
2019-05-19T21:11:47.568Z,24.30
2019-05-19T21:14:54.140Z,23.18
2019-05-19T21:18:01.099Z,24.50
2019-05-19T21:21:07.669Z,24.15
2019-05-19T21:24:14.197Z,24.02
2019-05-19T21:27:37.482Z,23.12
2019-05-19T21:30:47.656Z,27.00
2019-05-19T21:33:54.150Z,25.95
2019-05-19T21:37:00.749Z,28.38
2019-05-19T21:40:08.539Z,24.02
2019-05-19T21:43:15.083Z,23.67
2019-05-19T21:46:21.641Z,24.75
2019-05-19T21:49:28.119Z,21.62
2019-05-19T21:52:34.671Z,24.27
2019-05-19T21:55:41.100Z,26.07
2019-05-19T21:58:51.324Z,24.90
2019-05-19T22:01:57.789Z,24.75
2019-05-19T22:05:04.603Z,23.73
2019-05-19T22:08:15.164Z,24.67
2019-05-19T22:11:21.594Z,23.98
2019-05-19T22:14:28.085Z,22.75
2019-05-19T22:17:34.729Z,27.05
2019-05-19T22:20:43.414Z,30.12
2019-05-19T22:23:50.971Z,24.00
2019-05-19T22:26:57.483Z,25.85
2019-05-19T22:30:05.909Z,28.45
2019-05-19T22:33:12.440Z,31.25
2019-05-19T22:36:20.183Z,24.50
2019-05-19T22:39:26.589Z,24.02
2019-05-19T22:42:33.185Z,29.12
2019-05-19T22:45:39.928Z,24.85
2019-05-19T22:48:46.529Z,26.65
2019-05-19T22:51:53.144Z,26.55
2019-05-19T22:55:02.093Z,25.82
2019-05-19T22:58:08.685Z,29.35
2019-05-19T23:01:16.917Z,24.47
2019-05-19T23:04:23.925Z,27.55
2019-05-19T23:07:30.502Z,28.52
2019-05-19T23:10:39.547Z,27.42
2019-05-19T23:13:47.125Z,24.25
2019-05-19T23:16:55.732Z,31.73
2019-05-19T23:20:02.222Z,28.23
2019-05-19T23:23:10.606Z,26.45
2019-05-19T23:26:17.132Z,25.62
2019-05-19T23:29:23.670Z,27.32
2019-05-19T23:32:31.701Z,25.43
2019-05-19T23:35:38.154Z,67.62
2019-05-19T23:38:46.810Z,29.77
2019-05-19T23:41:53.572Z,29.32
2019-05-19T23:45:00.107Z,25.95
2019-05-19T23:48:08.732Z,24.95
2019-05-19T23:51:15.223Z,25.32
2019-05-19T23:54:21.949Z,26.90
2019-05-19T23:57:28.609Z,25.62
